KDEC/DEC METAR and TAF weather

Enter ICAO airport designator
Station Type Date Time Source
KDEC METAR 2019/04/19 21:54 UTC NOAA

KDEC 192154Z 01021G33KT 10SM FEW043 BKN050 12/02 A2974 RMK AO2 PK WND 02038/2144 SLP072 T01170022


Station Type Date Time Source
KDEC Decoded METAR 2019/04/19 21:54 UTC NOAA

DECATUR AIRPORT, IL, United States (KDEC) 39-50N 88-52W 207M
Apr 19, 2019 - 05:54 PM EDT / 2019.04.19 2154 UTC
Wind: from the N (010 degrees) at 24 MPH (21 KT) gusting to 38 MPH (33 KT):0
Visibility: 10 mile(s):0
Sky conditions: mostly cloudy
Temperature: 53.1 F (11.7 C)
Dew Point: 36.0 F (2.2 C)
Relative Humidity: 52%
Pressure (altimeter): 29.74 in. Hg (1007 hPa)
ob: KDEC 192154Z 01021G33KT 10SM FEW043 BKN050 12/02 A2974 RMK AO2 PK WND 02038/2144 SLP072 T01170022
cycle: 22

Station Type Date Time Source
KDEC TAF 2019/04/19 18:36 UTC NOAA

TAF KDEC 191735Z 1918/2018 36016G27KT P6SM VCSH SCT009 OVC030
FM192200 01020KT P6SM BKN040
FM200800 35015KT P6SM FEW250 WS020/02045KT
FM201100 35014KT P6SM FEW250 WS020/01045KT
FM201300 35015G24KT P6SM FEW250

Example: see airport list